createdAt,value
2023-02-04T00:00:03.692Z,99489.30
2023-02-04T00:02:33.810Z,99491.58
2023-02-04T00:05:00.559Z,99489.98
2023-02-04T00:07:27.297Z,99494.02
2023-02-04T00:09:56.236Z,99494.73
2023-02-04T00:12:23.113Z,99492.96
2023-02-04T00:14:50.321Z,99492.27
2023-02-04T00:17:17.066Z,99490.16
2023-02-04T00:19:44.044Z,99488.57
2023-02-04T00:22:10.978Z,99488.23
2023-02-04T00:24:38.055Z,99486.98
2023-02-04T00:27:05.571Z,99491.73
2023-02-04T00:29:32.424Z,99490.86
2023-02-04T00:31:59.869Z,99490.17
2023-02-04T00:34:27.532Z,99489.99
2023-02-04T00:36:54.403Z,99486.67
2023-02-04T00:39:21.755Z,99494.38
2023-02-04T00:41:48.476Z,99494.70
2023-02-04T00:44:15.465Z,99498.19
2023-02-04T00:46:42.821Z,99497.12
2023-02-04T00:49:10.127Z,99497.61
2023-02-04T00:51:39.032Z,99495.66
2023-02-04T00:54:06.556Z,99494.27
2023-02-04T00:56:34.914Z,99493.41
2023-02-04T00:59:03.016Z,99495.01
2023-02-04T01:01:30.522Z,99495.38
2023-02-04T01:03:57.454Z,99494.86
2023-02-04T01:06:24.809Z,99492.42
2023-02-04T01:08:52.713Z,99491.72
2023-02-04T01:11:19.694Z,99489.77
2023-02-04T01:13:47.126Z,99486.46
2023-02-04T01:16:14.346Z,99486.83
2023-02-04T01:18:41.025Z,99487.34
2023-02-04T01:21:07.736Z,99489.10
2023-02-04T01:23:35.798Z,99488.61
2023-02-04T01:26:02.978Z,99487.38
2023-02-04T01:28:29.784Z,99487.38
2023-02-04T01:30:58.608Z,99483.16
2023-02-04T01:33:25.444Z,99485.95
2023-02-04T01:35:52.253Z,99486.11
2023-02-04T01:38:19.117Z,99484.40
2023-02-04T01:40:45.806Z,99488.09
2023-02-04T01:43:12.696Z,99486.51
2023-02-04T01:45:39.382Z,99483.86
2023-02-04T01:48:06.159Z,99480.36
2023-02-04T01:50:33.510Z,99480.70
2023-02-04T01:53:00.598Z,99478.78
2023-02-04T01:55:28.874Z,99476.33
2023-02-04T01:57:58.170Z,99471.07
2023-02-04T02:00:31.010Z,99470.18
2023-02-04T02:02:58.775Z,99466.13
2023-02-04T02:05:44.950Z,99468.40
2023-02-04T02:08:12.149Z,99467.35
2023-02-04T02:10:40.341Z,99474.20
2023-02-04T02:13:07.916Z,99476.32
2023-02-04T02:15:38.868Z,99482.98
2023-02-04T02:18:06.060Z,99478.07
2023-02-04T02:20:33.450Z,99479.31
2023-02-04T02:23:41.458Z,99481.59
2023-02-04T02:26:08.198Z,99476.68
2023-02-04T02:28:35.270Z,99481.77
2023-02-04T02:31:02.184Z,99481.07
2023-02-04T02:33:29.735Z,99479.48
2023-02-04T02:35:56.499Z,99480.01
2023-02-04T02:38:25.908Z,99481.77
2023-02-04T02:40:52.956Z,99482.98
2023-02-04T02:43:23.306Z,99487.91
2023-02-04T02:45:49.937Z,99494.23
2023-02-04T02:48:17.012Z,99493.89
2023-02-04T02:50:43.665Z,99492.65
2023-02-04T02:53:15.893Z,99486.86
2023-02-04T02:55:44.285Z,99484.56
2023-02-04T02:58:36.344Z,99481.58
2023-02-04T03:01:05.118Z,99484.91
2023-02-04T03:03:45.756Z,99487.18
2023-02-04T03:06:19.773Z,99488.58
2023-02-04T03:08:50.829Z,99489.29
2023-02-04T03:11:21.500Z,99492.44
2023-02-04T03:13:49.365Z,99491.20
2023-02-04T03:16:17.633Z,99489.80
2023-02-04T03:18:44.351Z,99489.80
2023-02-04T03:21:11.395Z,99492.96
2023-02-04T03:23:38.517Z,99494.20
2023-02-04T03:26:05.266Z,99496.14
2023-02-04T03:28:32.317Z,99493.31
2023-02-04T03:30:59.733Z,99491.39
2023-02-04T03:33:31.016Z,99493.15
2023-02-04T03:35:58.492Z,99490.69
2023-02-04T03:38:25.857Z,99491.75
2023-02-04T03:40:52.733Z,99492.45
2023-02-04T03:43:19.949Z,99490.88
2023-02-04T03:45:46.758Z,99499.30
2023-02-04T03:48:13.724Z,99500.70
2023-02-04T03:50:40.359Z,99497.90
2023-02-04T03:53:07.270Z,99500.02
2023-02-04T03:55:35.489Z,99500.55
2023-02-04T03:58:03.136Z,99501.43
2023-02-04T04:00:31.888Z,99503.89
2023-02-04T04:02:59.410Z,99506.52
2023-02-04T04:05:27.470Z,99507.93
2023-02-04T04:07:54.133Z,99511.09
2023-02-04T04:10:21.081Z,99511.96
2023-02-04T04:12:50.388Z,99510.91
2023-02-04T04:15:18.022Z,99513.73
2023-02-04T04:17:44.744Z,99517.92
2023-02-04T04:20:11.960Z,99523.55
2023-02-04T04:24:00.720Z,99531.08
2023-02-04T04:26:29.159Z,99529.29
2023-02-04T04:28:57.402Z,99534.73
2023-02-04T04:31:25.713Z,99539.30
2023-02-04T04:33:53.971Z,99539.13
2023-02-04T04:36:22.433Z,99536.31
2023-02-04T04:38:50.571Z,99538.23
2023-02-04T04:41:18.696Z,99538.77
2023-02-04T04:43:46.819Z,99543.49
2023-02-04T04:46:15.168Z,99544.55
2023-02-04T04:48:43.402Z,99547.69
2023-02-04T04:51:11.671Z,99552.43
2023-02-04T04:53:39.789Z,99552.94
2023-02-04T04:56:07.939Z,99555.39
2023-02-04T04:58:36.069Z,99560.13
2023-02-04T05:01:04.157Z,99561.84
2023-02-04T05:03:32.731Z,99565.33
2023-02-04T05:06:00.975Z,99573.58
2023-02-04T05:08:29.322Z,99578.47
2023-02-04T05:10:57.381Z,99578.81
2023-02-04T05:13:25.817Z,99580.02
2023-02-04T05:15:56.102Z,99581.60
2023-02-04T05:18:24.422Z,99586.30
2023-02-04T05:20:52.579Z,99589.61
2023-02-04T05:23:20.896Z,99590.29
2023-02-04T05:25:49.969Z,99590.28
2023-02-04T05:28:18.328Z,99588.36
2023-02-04T05:30:46.470Z,99588.01
2023-02-04T05:33:15.248Z,99593.95
2023-02-04T05:35:43.548Z,99599.23
2023-02-04T05:38:11.597Z,99602.44
2023-02-04T05:40:42.605Z,99603.54
2023-02-04T05:43:11.041Z,99604.80
2023-02-04T05:45:42.882Z,99609.39
2023-02-04T05:48:11.336Z,99613.75
2023-02-04T05:50:39.443Z,99615.33
2023-02-04T05:53:10.911Z,99622.52
2023-02-04T05:55:42.115Z,99627.23
2023-02-04T05:58:10.232Z,99632.66
2023-02-04T06:00:41.032Z,99635.64
2023-02-04T06:03:09.274Z,99638.44
2023-02-04T06:05:37.496Z,99640.41
2023-02-04T06:08:05.544Z,99641.10
2023-02-04T06:10:33.763Z,99643.38
2023-02-04T06:13:02.751Z,99643.36
2023-02-04T06:15:30.984Z,99641.58
2023-02-04T06:17:59.332Z,99644.02
2023-02-04T06:20:27.558Z,99648.75
2023-02-04T06:22:55.703Z,99650.50
2023-02-04T06:25:24.660Z,99649.09
2023-02-04T06:27:52.834Z,99652.08
2023-02-04T06:30:21.127Z,99652.80
2023-02-04T06:32:49.279Z,99651.19
2023-02-04T06:35:18.029Z,99653.64
2023-02-04T06:37:46.316Z,99657.17
2023-02-04T06:40:14.589Z,99658.73
2023-02-04T06:42:43.152Z,99668.88
2023-02-04T06:45:11.191Z,99672.90
2023-02-04T06:47:39.752Z,99678.52
2023-02-04T06:50:08.502Z,99684.33
2023-02-04T06:52:37.349Z,99686.40
2023-02-04T06:55:06.003Z,99689.44
2023-02-04T06:57:34.138Z,99689.81
2023-02-04T07:00:02.241Z,99690.34
2023-02-04T07:02:30.788Z,99692.24
2023-02-04T07:05:01.004Z,99691.49
2023-02-04T07:07:29.663Z,99691.98
2023-02-04T08:00:33.755Z,99752.10
2023-02-04T08:03:00.988Z,99731.86
2023-02-04T08:05:29.703Z,99735.58
2023-02-04T08:07:57.954Z,99732.77
2023-02-04T08:10:24.757Z,99732.60
2023-02-04T08:12:54.078Z,99735.89
2023-02-04T08:15:20.929Z,99736.52
2023-02-04T08:17:48.289Z,99741.32
2023-02-04T08:20:16.842Z,99741.17
2023-02-04T08:22:44.658Z,99741.92
2023-02-04T08:25:11.710Z,99740.75
2023-02-04T08:27:38.506Z,99746.36
2023-02-04T08:30:05.996Z,99754.63
2023-02-04T08:32:33.319Z,99753.23
2023-02-04T08:35:00.483Z,99753.05
2023-02-04T08:37:27.246Z,99756.51
2023-02-04T08:39:55.293Z,99759.90
2023-02-04T08:42:21.924Z,99760.11
2023-02-04T08:44:49.177Z,99770.18
2023-02-04T08:47:16.131Z,99768.39
2023-02-04T08:49:43.489Z,99771.86
2023-02-04T08:52:10.338Z,99775.52
2023-02-04T08:54:37.652Z,99774.16
2023-02-04T08:57:05.020Z,99773.71
2023-02-04T08:59:32.017Z,99775.12
2023-02-04T09:01:58.926Z,99775.45
2023-02-04T09:04:25.952Z,99777.91
2023-02-04T09:06:54.693Z,99780.26
2023-02-04T09:09:23.014Z,99777.73
2023-02-04T09:11:50.437Z,99776.55
2023-02-04T09:14:17.534Z,99776.22
2023-02-04T09:16:44.360Z,99778.45
2023-02-04T09:19:12.418Z,99781.38
2023-02-04T09:21:39.149Z,99783.65
2023-02-04T09:24:05.988Z,99782.96
2023-02-04T09:26:33.139Z,99784.38
2023-02-04T09:29:00.204Z,99782.42
2023-02-04T09:31:27.121Z,99779.96
2023-02-04T09:33:53.939Z,99778.59
2023-02-04T09:36:20.827Z,99781.55
2023-02-04T09:38:47.458Z,99778.73
2023-02-04T09:41:14.533Z,99781.54
2023-02-04T09:43:43.510Z,99779.45
2023-02-04T09:46:20.939Z,99784.78
2023-02-04T09:48:48.362Z,99785.18
2023-02-04T09:51:21.117Z,99783.59
2023-02-04T09:53:47.692Z,99788.11
2023-02-04T09:56:14.452Z,99787.23
2023-02-04T09:58:41.972Z,99793.66
2023-02-04T10:01:15.723Z,99790.96
2023-02-04T10:03:46.175Z,99794.07
2023-02-04T10:06:17.882Z,99799.38
2023-02-04T10:08:48.566Z,99797.40
2023-02-04T10:11:15.893Z,99796.77
2023-02-04T10:13:45.524Z,99799.44
2023-02-04T10:16:20.156Z,99799.45
2023-02-04T10:18:47.073Z,99804.67
2023-02-04T10:21:21.451Z,99808.67
2023-02-04T10:23:49.615Z,99812.33
2023-02-04T10:26:16.584Z,99819.16
2023-02-04T10:28:43.615Z,99816.33
2023-02-04T10:31:49.752Z,99823.89
2023-02-04T10:34:21.664Z,99828.94
2023-02-04T10:36:53.314Z,99837.48
2023-02-04T10:39:21.512Z,99836.32
2023-02-04T10:41:50.315Z,99839.55
2023-02-04T10:44:36.005Z,99841.54
2023-02-04T10:47:04.800Z,99847.69
2023-02-04T10:49:32.976Z,99855.23
2023-02-04T10:51:59.808Z,99856.11
2023-02-04T10:54:30.547Z,99859.91
2023-02-04T10:57:06.940Z,99861.70
2023-02-04T10:59:35.052Z,99861.21
2023-02-04T11:02:02.582Z,99862.66
2023-02-04T11:04:29.360Z,99864.98
2023-02-04T11:06:56.506Z,99868.34
2023-02-04T11:09:23.278Z,99869.60
2023-02-04T11:11:50.601Z,99874.69
2023-02-04T11:14:28.913Z,99875.92
2023-02-04T11:17:01.158Z,99880.34
2023-02-04T11:19:36.192Z,99883.45
2023-02-04T11:22:23.873Z,99883.75
2023-02-04T11:24:51.004Z,99881.05
2023-02-04T11:27:23.488Z,99882.09
2023-02-04T11:29:50.491Z,99881.91
2023-02-04T11:32:37.428Z,99886.15
2023-02-04T11:35:11.078Z,99890.43
2023-02-04T11:37:40.069Z,99891.84
2023-02-04T11:40:39.764Z,99892.20
2023-02-04T11:43:13.272Z,99890.40
2023-02-04T11:45:40.708Z,99888.21
2023-02-04T11:48:15.841Z,99892.44
2023-02-04T11:50:42.746Z,99892.06
2023-02-04T11:53:10.972Z,99896.78
2023-02-04T11:55:46.380Z,99897.59
2023-02-04T11:58:16.054Z,99898.39
2023-02-04T12:00:42.669Z,99899.15
2023-02-04T12:03:30.156Z,99899.73
2023-02-04T12:05:57.936Z,99910.19
2023-02-04T12:08:29.831Z,99913.67
2023-02-04T12:11:01.530Z,99915.58
2023-02-04T12:13:30.924Z,99908.95
2023-02-04T12:16:03.207Z,99915.26
2023-02-04T12:18:30.961Z,99914.48
2023-02-04T12:20:58.539Z,99913.93
2023-02-04T12:23:26.863Z,99912.54
2023-02-04T12:25:53.814Z,99911.66
2023-02-04T12:28:21.985Z,99915.48
2023-02-04T12:30:49.100Z,99919.12
2023-02-04T12:33:15.862Z,99925.70
2023-02-04T12:35:42.823Z,99922.68
2023-02-04T12:38:09.782Z,99922.30
2023-02-04T12:40:38.668Z,99923.48
2023-02-04T12:43:06.714Z,99933.06
2023-02-04T12:45:37.632Z,99939.72
2023-02-04T12:48:04.551Z,99935.91
2023-02-04T12:50:32.000Z,99938.23
2023-02-04T12:52:59.047Z,99942.80
2023-02-04T12:55:26.854Z,99945.29
2023-02-04T12:57:53.777Z,99946.17
2023-02-04T13:00:20.800Z,99951.59
2023-02-04T13:02:47.735Z,99948.23
2023-02-04T13:05:14.781Z,99950.66
2023-02-04T13:07:43.034Z,99956.11
2023-02-04T13:10:10.497Z,99963.15
2023-02-04T13:12:40.023Z,99966.12
2023-02-04T13:15:07.683Z,99960.64
2023-02-04T13:17:35.885Z,99964.34
2023-02-04T13:20:08.098Z,99973.94
2023-02-04T13:22:35.036Z,99973.31
2023-02-04T13:25:04.035Z,99977.99
2023-02-04T13:27:31.453Z,99977.92
2023-02-04T13:29:58.186Z,99986.64
2023-02-04T13:32:25.263Z,99990.13
2023-02-04T13:34:52.947Z,99995.02
2023-02-04T13:37:19.521Z,99997.12
2023-02-04T13:39:46.611Z,99999.16
2023-02-04T13:42:13.428Z,99998.66
2023-02-04T13:44:40.375Z,99999.34
2023-02-04T13:47:07.372Z,100005.30
2023-02-04T13:49:34.610Z,100010.42
2023-02-04T13:52:01.334Z,100013.00
2023-02-04T13:54:28.367Z,100013.20
2023-02-04T13:56:55.038Z,100013.48
2023-02-04T13:59:21.785Z,100019.95
2023-02-04T14:01:48.763Z,100021.90
2023-02-04T14:04:15.702Z,100026.13
2023-02-04T14:06:45.452Z,100023.13
2023-02-04T14:09:12.477Z,100024.39
2023-02-04T14:11:39.659Z,100026.70
2023-02-04T14:14:09.681Z,100032.59
2023-02-04T14:16:39.359Z,100040.39
2023-02-04T14:19:06.944Z,100042.23
2023-02-04T14:21:34.193Z,100042.38
2023-02-04T14:24:01.109Z,100050.88
2023-02-04T14:26:28.330Z,100052.87
2023-02-04T14:28:55.250Z,100052.67
2023-02-04T14:31:22.438Z,100057.79
2023-02-04T14:33:50.333Z,100064.63
2023-02-04T14:36:18.229Z,100065.42
2023-02-04T14:38:45.071Z,100063.15
2023-02-04T14:41:15.676Z,100065.52
2023-02-04T14:43:42.793Z,100071.35
2023-02-04T14:46:09.766Z,100078.09
2023-02-04T14:49:30.673Z,100083.31
2023-02-04T14:52:21.786Z,100086.77
2023-02-04T14:54:48.997Z,100085.92
2023-02-04T14:57:16.033Z,100090.83
2023-02-04T14:59:44.173Z,100092.45
2023-02-04T15:02:11.179Z,100093.52
2023-02-04T15:04:38.103Z,100099.20
2023-02-04T15:07:04.950Z,100099.23
2023-02-04T15:09:31.691Z,100101.97
2023-02-04T15:11:58.532Z,100107.09
2023-02-04T15:14:25.480Z,100111.25
2023-02-04T15:16:52.368Z,100119.04
2023-02-04T15:19:21.111Z,100120.67
2023-02-04T15:21:48.133Z,100125.50
2023-02-04T15:24:15.007Z,100124.73
2023-02-04T15:26:42.254Z,100132.56
2023-02-04T15:29:09.311Z,100133.95
2023-02-04T15:31:36.217Z,100138.89
2023-02-04T15:34:04.719Z,100143.30
2023-02-04T15:36:32.605Z,100145.80
2023-02-04T15:38:59.346Z,100154.05
2023-02-04T15:41:26.192Z,100153.81
2023-02-04T15:43:53.339Z,100151.33
2023-02-04T15:46:20.117Z,100157.39
2023-02-04T15:48:48.314Z,100157.52
2023-02-04T15:51:15.106Z,100159.59
2023-02-04T15:53:42.033Z,100163.52
2023-02-04T15:56:10.324Z,100166.89
2023-02-04T15:58:38.408Z,100173.05
2023-02-04T16:01:05.691Z,100176.23
2023-02-04T16:03:33.844Z,100178.27
2023-02-04T16:06:00.778Z,100183.34
2023-02-04T16:08:27.728Z,100185.39
2023-02-04T16:10:58.358Z,100182.42
2023-02-04T16:13:25.411Z,100185.52
2023-02-04T16:15:52.693Z,100194.39
2023-02-04T16:18:19.604Z,100194.12
2023-02-04T16:20:46.660Z,100196.66
2023-02-04T16:23:14.365Z,100196.78
2023-02-04T16:25:41.164Z,100201.77
2023-02-04T16:28:08.160Z,100199.86
2023-02-04T16:30:35.593Z,100202.30
2023-02-04T16:33:02.723Z,100199.25
2023-02-04T16:35:32.387Z,100201.29
2023-02-04T16:38:00.312Z,100205.17
2023-02-04T16:40:27.482Z,100210.77
2023-02-04T16:42:54.790Z,100214.56
2023-02-04T16:45:22.607Z,100210.56
2023-02-04T16:47:50.331Z,100215.27
2023-02-04T16:50:18.917Z,100216.13
2023-02-04T16:52:46.286Z,100218.14
2023-02-04T16:55:13.356Z,100215.77
2023-02-04T16:57:42.730Z,100218.23
2023-02-04T17:00:10.975Z,100219.47
2023-02-04T17:02:37.755Z,100221.99
2023-02-04T17:05:05.310Z,100224.71
2023-02-04T17:07:32.494Z,100228.44
2023-02-04T17:09:59.612Z,100228.86
2023-02-04T17:12:26.559Z,100231.08
2023-02-04T17:14:58.155Z,100232.11
2023-02-04T17:17:28.235Z,100231.23
2023-02-04T17:19:55.408Z,100233.41
2023-02-04T17:22:22.232Z,100238.74
2023-02-04T17:24:49.189Z,100240.59
2023-02-04T17:27:16.328Z,100240.40
2023-02-04T17:29:43.991Z,100240.35
2023-02-04T17:32:11.906Z,100241.71
2023-02-04T17:34:38.832Z,100244.94
2023-02-04T17:37:05.766Z,100245.06
2023-02-04T17:39:33.623Z,100244.21
2023-02-04T17:42:00.888Z,100246.98
2023-02-04T17:44:28.565Z,100248.38
2023-02-04T17:46:56.976Z,100248.27
2023-02-04T17:49:23.908Z,100252.02
2023-02-04T17:51:50.724Z,100257.11
2023-02-04T17:54:17.780Z,100260.25
2023-02-04T17:56:44.711Z,100259.39
2023-02-04T17:59:12.381Z,100262.27
2023-02-04T18:01:41.232Z,100266.06
2023-02-04T18:04:15.030Z,100269.35
2023-02-04T18:06:44.891Z,100268.79
2023-02-04T18:09:15.753Z,100272.87
2023-02-04T18:11:43.999Z,100275.52
2023-02-04T18:14:16.424Z,100276.09
2023-02-04T18:16:43.964Z,100281.78
2023-02-04T18:19:18.378Z,100286.38
2023-02-04T18:21:46.035Z,100291.52
2023-02-04T18:24:32.379Z,100288.59
2023-02-04T18:27:00.748Z,100294.41
2023-02-04T18:29:35.643Z,100304.43
2023-02-04T18:32:05.651Z,100305.18
2023-02-04T18:42:05.400Z,100314.42
2023-02-04T18:44:35.439Z,100311.96
2023-02-04T18:47:09.854Z,100314.93
2023-02-04T18:49:39.693Z,100318.55
2023-02-04T18:52:18.005Z,100318.21
2023-02-04T18:54:56.761Z,100323.66
2023-02-04T18:57:35.920Z,100320.96
2023-02-04T19:00:12.138Z,100324.17
2023-02-04T19:02:53.114Z,100324.48
2023-02-04T19:05:29.977Z,100329.51
2023-02-04T19:08:04.172Z,100332.48
2023-02-04T19:10:37.373Z,100337.42
2023-02-04T19:13:20.936Z,100343.59
2023-02-04T19:16:23.060Z,100341.20
2023-02-04T19:18:52.689Z,100342.35
2023-02-04T19:21:22.741Z,100340.13
2023-02-04T19:24:11.869Z,100348.34
2023-02-04T19:26:43.723Z,100343.73
2023-02-04T19:29:30.263Z,100344.27
2023-02-04T19:32:00.043Z,100346.31
2023-02-04T19:34:29.555Z,100345.38
2023-02-04T19:36:57.691Z,100345.92
2023-02-04T19:39:35.474Z,100349.77
2023-02-04T19:42:32.382Z,100347.89
2023-02-04T19:45:02.366Z,100354.37
2023-02-04T19:47:44.689Z,100356.55
2023-02-04T19:50:12.995Z,100357.99
2023-02-04T19:52:48.795Z,100359.13
2023-02-04T19:55:17.547Z,100368.58
2023-02-04T19:57:51.520Z,100370.02
2023-02-04T20:00:36.134Z,100368.69
2023-02-04T20:03:27.798Z,100366.13
2023-02-04T20:06:02.360Z,100370.45
2023-02-04T20:08:45.389Z,100370.66
2023-02-04T20:11:38.358Z,100371.15
2023-02-04T20:14:13.890Z,100376.15
2023-02-04T20:18:20.277Z,100391.52
2023-02-04T20:20:49.362Z,100378.41
2023-02-04T20:23:32.797Z,100379.64
2023-02-04T20:26:01.055Z,100385.73
2023-02-04T20:28:36.218Z,100386.40
2023-02-04T20:31:24.888Z,100386.67
2023-02-04T20:33:57.363Z,100388.64
2023-02-04T20:36:36.273Z,100388.53
2023-02-04T20:39:37.123Z,100390.71
2023-02-04T20:42:33.680Z,100391.89
2023-02-04T20:45:24.764Z,100395.30
2023-02-04T20:47:56.435Z,100397.63
2023-02-04T20:50:38.170Z,100396.08
2023-02-04T20:53:16.332Z,100395.42
2023-02-04T20:55:48.498Z,100398.48
2023-02-04T20:58:24.464Z,100402.06
2023-02-04T21:00:54.267Z,100401.55
2023-02-04T21:03:28.611Z,100404.31
2023-02-04T21:05:58.827Z,100401.75
2023-02-04T21:08:34.909Z,100405.70
2023-02-04T21:11:04.066Z,100404.98
2023-02-04T21:13:33.279Z,100408.15
2023-02-04T21:16:02.087Z,100408.13
2023-02-04T21:18:30.558Z,100411.33
2023-02-04T21:20:58.862Z,100409.73
2023-02-04T21:23:27.609Z,100409.91
2023-02-04T21:25:56.018Z,100414.66
2023-02-04T21:28:24.930Z,100421.52
2023-02-04T21:30:54.184Z,100424.95
2023-02-04T21:33:23.688Z,100429.13
2023-02-04T21:35:57.253Z,100433.26
2023-02-04T21:38:25.633Z,100433.62
2023-02-04T21:40:54.108Z,100431.55
2023-02-04T21:43:22.436Z,100430.69
2023-02-04T21:45:51.742Z,100432.51
2023-02-04T21:48:19.950Z,100431.91
2023-02-04T21:50:48.602Z,100434.08
2023-02-04T21:53:16.634Z,100433.98
2023-02-04T21:55:44.785Z,100432.92
2023-02-04T21:58:13.023Z,100433.59
2023-02-04T22:00:44.476Z,100436.23
2023-02-04T22:03:16.009Z,100436.59
2023-02-04T22:05:45.460Z,100439.48
2023-02-04T22:08:14.242Z,100438.59
2023-02-04T22:10:46.090Z,100438.90
2023-02-04T22:13:48.019Z,100436.30
2023-02-04T22:16:17.351Z,100436.80
2023-02-04T22:18:45.954Z,100432.13
2023-02-04T22:21:14.203Z,100435.55
2023-02-04T22:23:42.358Z,100435.87
2023-02-04T22:26:10.933Z,100439.93
2023-02-04T22:28:39.269Z,100439.17
2023-02-04T22:31:07.541Z,100437.58
2023-02-04T22:33:35.920Z,100437.73
2023-02-04T22:36:06.914Z,100437.39
2023-02-04T22:38:35.365Z,100435.83
2023-02-04T22:41:04.033Z,100440.34
2023-02-04T22:43:32.283Z,100440.23
2023-02-04T22:46:00.416Z,100440.38
2023-02-04T22:48:29.733Z,100443.15
2023-02-04T22:51:03.343Z,100439.06
2023-02-04T22:53:32.149Z,100440.73
2023-02-04T22:56:00.286Z,100440.59
2023-02-04T22:58:28.629Z,100441.15
2023-02-04T23:00:57.831Z,100440.93
2023-02-04T23:03:26.519Z,100443.45
2023-02-04T23:05:55.218Z,100449.00
2023-02-04T23:08:23.680Z,100445.52
2023-02-04T23:10:52.291Z,100450.65
2023-02-04T23:13:28.483Z,100450.31
2023-02-04T23:15:57.330Z,100444.96
2023-02-04T23:18:25.515Z,100440.89
2023-02-04T23:20:54.181Z,100444.69
2023-02-04T23:23:22.395Z,100445.88
2023-02-04T23:25:50.737Z,100444.49
2023-02-04T23:28:18.996Z,100445.34
2023-02-04T23:30:47.097Z,100437.96
2023-02-04T23:33:15.781Z,100443.36
2023-02-04T23:35:43.840Z,100442.35
2023-02-04T23:38:11.875Z,100440.85
2023-02-04T23:40:39.959Z,100441.95
2023-02-04T23:43:09.901Z,100441.44
2023-02-04T23:45:38.952Z,100443.20
2023-02-04T23:48:07.051Z,100449.45
2023-02-04T23:50:35.107Z,100443.63
2023-02-04T23:53:03.362Z,100449.83
2023-02-04T23:55:32.160Z,100456.29
2023-02-04T23:58:00.701Z,100456.13
